Time;durP1;ratioP1;P1;durP2;ratioP2;P2;SDS_P1;SDS_P2;PMS_P1;PMS_P2;Temp;Humidity;BMP_temperature;BMP_pressure;BME280_temperature;BME280_humidity;BME280_pressure;Samples;Min_cycle;Max_cycle;Signal;HPM_P1;HPM_P2
2022/07/20 00:00:13;;;;;;;;;;;21.90;99.90;;;;;;5098705;28;20011;-66
2022/07/20 00:02:39;;;;;;;;;;;21.90;99.90;;;;;;5094022;28;19920;-67
2022/07/20 00:05:05;;;;;;;;;;;21.90;99.90;;;;;;5074686;28;19919;-66
2022/07/20 00:07:31;;;;;;;;;;;21.80;99.90;;;;;;5094194;28;19912;-66
2022/07/20 00:12:40;;;;;;;;;;;21.80;99.90;;;;;;5093699;28;20384;-67
2022/07/20 00:15:06;;;;;;;;;;;21.70;99.90;;;;;;5096834;28;19926;-65
2022/07/20 00:17:32;;;;;;;;;;;21.70;99.90;;;;;;5093952;28;19946;-66
2022/07/20 00:19:57;;;;;;;;;;;21.80;99.90;;;;;;5094040;28;20007;-66
2022/07/20 00:22:23;;;;;;;;;;;21.60;99.90;;;;;;5091986;28;20025;-66
2022/07/20 00:24:48;;;;;;;;;;;21.50;99.90;;;;;;5090659;28;19938;-67
2022/07/20 00:27:14;;;;;;;;;;;21.40;99.90;;;;;;5092813;28;19912;-67
2022/07/20 00:29:39;;;;;;;;;;;21.40;99.90;;;;;;5094813;28;20002;-66
2022/07/20 00:32:05;;;;;;;;;;;21.30;99.90;;;;;;5092064;28;20324;-67
2022/07/20 00:34:30;;;;;;;;;;;21.30;99.90;;;;;;5092898;28;19919;-65
2022/07/20 00:36:56;;;;;;;;;;;21.30;99.90;;;;;;5091948;28;20271;-66
2022/07/20 00:39:22;;;;;;;;;;;21.30;99.90;;;;;;5090588;28;19928;-66
2022/07/20 00:41:47;;;;;;;;;;;21.30;99.90;;;;;;5096901;28;20465;-66
2022/07/20 00:44:13;;;;;;;;;;;21.40;99.90;;;;;;5092401;28;19966;-66
2022/07/20 00:46:42;;;;;;;;;;;21.60;99.90;;;;;;5093322;28;19916;-66
2022/07/20 00:49:09;;;;;;;;;;;21.90;99.90;;;;;;5092896;28;19919;-66
2022/07/20 00:51:35;;;;;;;;;;;22.00;99.90;;;;;;5093931;28;19935;-66
2022/07/20 00:54:03;;;;;;;;;;;22.10;99.90;;;;;;5089252;28;19919;-66
2022/07/20 00:56:29;;;;;;;;;;;22.10;99.90;;;;;;5093622;28;19955;-66
2022/07/20 00:58:54;;;;;;;;;;;22.40;99.90;;;;;;5091565;28;20038;-66
2022/07/20 01:01:20;;;;;;;;;;;22.20;99.90;;;;;;5076519;28;19949;-66
2022/07/20 01:03:45;;;;;;;;;;;22.20;99.90;;;;;;5100768;28;19942;-66
2022/07/20 01:06:11;;;;;;;;;;;22.20;99.90;;;;;;5089432;28;19916;-66
2022/07/20 01:08:37;;;;;;;;;;;21.90;99.90;;;;;;5072525;28;19919;-65
2022/07/20 01:11:03;;;;;;;;;;;21.90;99.90;;;;;;5075528;28;20411;-67
2022/07/20 01:13:28;;;;;;;;;;;21.90;99.90;;;;;;5080229;28;20030;-66
2022/07/20 01:15:54;;;;;;;;;;;22.00;99.90;;;;;;5094763;28;19965;-67
2022/07/20 01:18:20;;;;;;;;;;;21.90;99.90;;;;;;5098433;28;20011;-66
2022/07/20 01:20:47;;;;;;;;;;;21.90;99.90;;;;;;5105563;28;19945;-66
2022/07/20 01:23:13;;;;;;;;;;;21.80;99.90;;;;;;5098332;28;19912;-66
2022/07/20 01:25:39;;;;;;;;;;;21.70;99.90;;;;;;5095309;28;19912;-66
2022/07/20 01:28:08;;;;;;;;;;;21.70;99.90;;;;;;5097479;28;20259;-67
2022/07/20 01:30:34;;;;;;;;;;;21.70;99.90;;;;;;5097399;28;19924;-67
2022/07/20 01:32:59;;;;;;;;;;;21.50;99.90;;;;;;5093323;28;19916;-66
2022/07/20 01:35:25;;;;;;;;;;;21.40;99.90;;;;;;5098534;28;20362;-66
2022/07/20 01:37:51;;;;;;;;;;;21.40;99.90;;;;;;5104662;28;19912;-66
2022/07/20 01:40:17;;;;;;;;;;;21.40;99.90;;;;;;5099559;28;19953;-67
2022/07/20 01:42:42;;;;;;;;;;;21.50;99.90;;;;;;5107359;28;19954;-66
2022/07/20 01:45:08;;;;;;;;;;;21.50;99.90;;;;;;5094029;28;19926;-67
2022/07/20 01:47:34;;;;;;;;;;;21.50;99.90;;;;;;5097132;28;19912;-66
2022/07/20 01:50:00;;;;;;;;;;;21.40;99.90;;;;;;5100518;28;19912;-66
2022/07/20 01:52:25;;;;;;;;;;;21.40;99.90;;;;;;5094500;28;19916;-66
2022/07/20 01:54:51;;;;;;;;;;;21.40;99.90;;;;;;5104571;28;19918;-66
2022/07/20 01:57:17;;;;;;;;;;;21.40;99.90;;;;;;5100410;28;20015;-65
2022/07/20 01:59:42;;;;;;;;;;;21.30;99.90;;;;;;5100344;28;19920;-65
2022/07/20 02:02:08;;;;;;;;;;;21.40;99.90;;;;;;5095911;28;19908;-65
2022/07/20 02:04:33;;;;;;;;;;;21.30;99.90;;;;;;5080067;28;19963;-67
2022/07/20 02:06:59;;;;;;;;;;;21.30;99.90;;;;;;5095363;28;20328;-67
2022/07/20 02:09:24;;;;;;;;;;;21.40;99.90;;;;;;5094331;28;19916;-66
2022/07/20 02:11:50;;;;;;;;;;;21.40;99.90;;;;;;5093730;28;19999;-66
2022/07/20 02:14:15;;;;;;;;;;;21.40;99.90;;;;;;5096105;28;19912;-67
2022/07/20 02:16:41;;;;;;;;;;;21.50;99.90;;;;;;5095105;28;19957;-67
2022/07/20 02:19:07;;;;;;;;;;;21.50;99.90;;;;;;5093255;28;20370;-66
2022/07/20 02:21:32;;;;;;;;;;;21.40;99.90;;;;;;5092938;28;20294;-66
2022/07/20 02:23:58;;;;;;;;;;;21.40;99.90;;;;;;5095837;28;20382;-66
2022/07/20 02:26:24;;;;;;;;;;;21.30;99.90;;;;;;5095402;28;20396;-66
2022/07/20 02:28:50;;;;;;;;;;;21.20;99.90;;;;;;5093188;28;19919;-67
2022/07/20 02:31:15;;;;;;;;;;;21.20;99.90;;;;;;5093866;28;20380;-66
2022/07/20 02:33:41;;;;;;;;;;;21.20;99.90;;;;;;5096987;28;20013;-66
2022/07/20 02:36:07;;;;;;;;;;;21.20;99.90;;;;;;5094851;28;20382;-66
2022/07/20 02:38:32;;;;;;;;;;;21.10;99.90;;;;;;5081374;28;19919;-66
2022/07/20 02:40:58;;;;;;;;;;;21.10;99.90;;;;;;5103471;28;19928;-66
2022/07/20 02:43:23;;;;;;;;;;;21.10;99.90;;;;;;5095704;28;19922;-66
2022/07/20 02:45:49;;;;;;;;;;;21.10;99.90;;;;;;5075875;28;19961;-65
2022/07/20 02:48:15;;;;;;;;;;;21.20;99.90;;;;;;5094873;28;19918;-66
2022/07/20 02:50:41;;;;;;;;;;;21.20;99.90;;;;;;5093231;28;20006;-66
2022/07/20 02:53:07;;;;;;;;;;;21.10;99.90;;;;;;5091573;28;20006;-66
2022/07/20 02:55:33;;;;;;;;;;;21.20;99.90;;;;;;5096765;28;19912;-67
2022/07/20 02:57:59;;;;;;;;;;;21.40;99.90;;;;;;5092904;28;19965;-66
2022/07/20 03:00:25;;;;;;;;;;;21.30;99.90;;;;;;5095988;28;20382;-67
2022/07/20 03:02:51;;;;;;;;;;;21.20;99.90;;;;;;5092717;28;19912;-66
2022/07/20 03:05:17;;;;;;;;;;;21.20;99.90;;;;;;5091378;28;19912;-67
2022/07/20 03:07:42;;;;;;;;;;;21.10;99.90;;;;;;5098583;28;19916;-66
2022/07/20 03:10:09;;;;;;;;;;;21.10;99.90;;;;;;5093802;28;19983;-67
2022/07/20 03:12:35;;;;;;;;;;;21.30;99.90;;;;;;5093123;28;19952;-66
2022/07/20 03:15:01;;;;;;;;;;;21.40;99.90;;;;;;5094121;28;19920;-66
2022/07/20 03:17:26;;;;;;;;;;;21.70;99.90;;;;;;5092665;28;19920;-66
2022/07/20 03:19:52;;;;;;;;;;;21.90;99.90;;;;;;5092610;28;19950;-67
2022/07/20 03:22:17;;;;;;;;;;;22.00;99.90;;;;;;5096984;28;20301;-67
2022/07/20 03:24:43;;;;;;;;;;;22.00;99.90;;;;;;5093362;28;19916;-65
2022/07/20 03:27:09;;;;;;;;;;;21.80;99.90;;;;;;5093161;28;19915;-67
2022/07/20 03:29:35;;;;;;;;;;;21.90;99.90;;;;;;5094124;28;19935;-66
2022/07/20 03:32:00;;;;;;;;;;;21.80;99.90;;;;;;5095399;28;19912;-67
2022/07/20 03:34:28;;;;;;;;;;;21.70;99.90;;;;;;5096764;28;19920;-66
2022/07/20 03:36:54;;;;;;;;;;;21.70;99.90;;;;;;5091322;28;19922;-66
2022/07/20 03:39:20;;;;;;;;;;;21.70;99.90;;;;;;5093426;28;19921;-66
2022/07/20 03:41:45;;;;;;;;;;;21.70;99.90;;;;;;5092906;28;20398;-66
2022/07/20 03:44:11;;;;;;;;;;;21.80;99.90;;;;;;5092249;28;19916;-66
2022/07/20 03:46:36;;;;;;;;;;;21.90;99.90;;;;;;5092519;28;19919;-66
2022/07/20 03:49:02;;;;;;;;;;;21.70;99.90;;;;;;5093504;28;19912;-66
2022/07/20 03:51:28;;;;;;;;;;;21.40;99.90;;;;;;5073086;28;20331;-66
2022/07/20 03:53:53;;;;;;;;;;;21.40;99.90;;;;;;5093299;28;19912;-66
2022/07/20 03:56:19;;;;;;;;;;;21.50;99.90;;;;;;5095641;28;20011;-66
2022/07/20 03:58:44;;;;;;;;;;;21.80;99.90;;;;;;5094081;28;20295;-66
2022/07/20 04:01:10;;;;;;;;;;;21.90;99.90;;;;;;5090930;28;19925;-66
2022/07/20 04:03:36;;;;;;;;;;;22.20;99.90;;;;;;5093215;28;20005;-66
2022/07/20 04:06:02;;;;;;;;;;;22.20;99.90;;;;;;5089675;28;19912;-67
2022/07/20 04:08:27;;;;;;;;;;;22.20;99.90;;;;;;5095213;28;19912;-67
2022/07/20 04:10:53;;;;;;;;;;;22.20;99.90;;;;;;5095772;28;20270;-66
2022/07/20 04:13:18;;;;;;;;;;;22.30;99.90;;;;;;5093551;28;20386;-67
2022/07/20 04:15:44;;;;;;;;;;;22.40;99.90;;;;;;5090705;28;19911;-66
2022/07/20 04:18:09;;;;;;;;;;;22.20;99.90;;;;;;5091204;28;19928;-67
2022/07/20 04:20:35;;;;;;;;;;;22.20;99.90;;;;;;5092040;28;19920;-67
2022/07/20 04:23:01;;;;;;;;;;;22.10;99.90;;;;;;5093493;28;19919;-67
2022/07/20 04:25:26;;;;;;;;;;;22.00;99.90;;;;;;5091222;28;19919;-67
2022/07/20 04:27:52;;;;;;;;;;;21.70;99.90;;;;;;5091104;28;19912;-66
2022/07/20 04:30:17;;;;;;;;;;;21.60;99.90;;;;;;5092844;28;19914;-67
2022/07/20 04:32:43;;;;;;;;;;;21.50;99.90;;;;;;5094719;28;20452;-66
2022/07/20 04:35:10;;;;;;;;;;;21.70;99.90;;;;;;5095979;28;20422;-66
2022/07/20 04:37:35;;;;;;;;;;;21.70;99.90;;;;;;5076148;28;19952;-67
2022/07/20 04:40:01;;;;;;;;;;;21.60;99.90;;;;;;5091305;28;19975;-67
2022/07/20 04:42:27;;;;;;;;;;;21.80;99.90;;;;;;5090296;28;19915;-66
2022/07/20 04:44:53;;;;;;;;;;;21.80;99.90;;;;;;5094690;28;19961;-66
2022/07/20 04:47:18;;;;;;;;;;;21.80;99.90;;;;;;5093316;28;19944;-66
2022/07/20 04:49:44;;;;;;;;;;;21.80;99.90;;;;;;5096083;28;20385;-65
2022/07/20 04:52:09;;;;;;;;;;;21.60;99.90;;;;;;5094085;28;19913;-66
2022/07/20 04:54:35;;;;;;;;;;;21.50;99.90;;;;;;5096184;28;19912;-66
2022/07/20 04:57:01;;;;;;;;;;;21.60;99.90;;;;;;5096715;28;19919;-67
2022/07/20 04:59:27;;;;;;;;;;;21.40;99.90;;;;;;5094251;28;19959;-67
2022/07/20 05:01:53;;;;;;;;;;;21.40;99.90;;;;;;5097385;28;20393;-66
2022/07/20 05:04:18;;;;;;;;;;;21.70;99.90;;;;;;5103395;28;19912;-66
2022/07/20 05:06:44;;;;;;;;;;;22.10;99.90;;;;;;5099361;28;19916;-66
2022/07/20 05:09:11;;;;;;;;;;;22.00;99.90;;;;;;5096732;28;19912;-67
2022/07/20 05:11:37;;;;;;;;;;;21.90;99.90;;;;;;5097715;28;20382;-67
2022/07/20 05:14:03;;;;;;;;;;;21.90;99.90;;;;;;5080258;28;20400;-66
2022/07/20 05:16:28;;;;;;;;;;;21.90;99.90;;;;;;5102007;28;20011;-66
2022/07/20 05:18:54;;;;;;;;;;;21.80;99.90;;;;;;5088315;28;19926;-67
2022/07/20 05:21:19;;;;;;;;;;;21.60;99.90;;;;;;5102392;28;20309;-65
2022/07/20 05:23:45;;;;;;;;;;;21.70;99.90;;;;;;5097803;28;19964;-67
2022/07/20 05:26:11;;;;;;;;;;;21.90;99.90;;;;;;5101089;28;19928;-67
2022/07/20 05:28:38;;;;;;;;;;;22.00;99.90;;;;;;5088264;28;19995;-66
2022/07/20 05:31:04;;;;;;;;;;;21.80;99.90;;;;;;5103714;28;19912;-66
2022/07/20 05:33:30;;;;;;;;;;;21.70;99.90;;;;;;5097001;28;20388;-66
2022/07/20 05:35:55;;;;;;;;;;;21.70;99.90;;;;;;5097223;28;19912;-66
2022/07/20 05:38:21;;;;;;;;;;;21.90;99.90;;;;;;5099494;28;19920;-66
2022/07/20 05:40:46;;;;;;;;;;;22.30;99.90;;;;;;5085235;28;20443;-66
2022/07/20 05:43:12;;;;;;;;;;;22.50;99.90;;;;;;5094754;28;19963;-67
2022/07/20 05:45:38;;;;;;;;;;;22.20;99.90;;;;;;5094182;28;19920;-66
2022/07/20 05:48:05;;;;;;;;;;;22.00;99.90;;;;;;5098285;28;20025;-67
2022/07/20 05:50:31;;;;;;;;;;;21.80;99.90;;;;;;5104799;28;19948;-67
2022/07/20 05:52:57;;;;;;;;;;;22.00;99.90;;;;;;5093878;28;20010;-66
2022/07/20 05:55:22;;;;;;;;;;;21.80;99.90;;;;;;5101612;28;19941;-67
2022/07/20 05:57:48;;;;;;;;;;;21.80;99.90;;;;;;5105034;28;20022;-67
2022/07/20 06:00:14;;;;;;;;;;;21.90;99.90;;;;;;5102663;28;20310;-66
2022/07/20 06:02:40;;;;;;;;;;;21.90;99.90;;;;;;5101359;28;19920;-67
2022/07/20 06:05:06;;;;;;;;;;;21.80;99.90;;;;;;5090527;28;20275;-67
2022/07/20 06:07:31;;;;;;;;;;;21.80;99.90;;;;;;5096819;28;19912;-67
2022/07/20 06:09:57;;;;;;;;;;;21.70;99.90;;;;;;5107347;28;19915;-67
2022/07/20 06:12:22;;;;;;;;;;;21.90;99.90;;;;;;5081871;28;20358;-68
2022/07/20 06:14:48;;;;;;;;;;;21.70;99.90;;;;;;5098314;28;19958;-68
2022/07/20 06:17:14;;;;;;;;;;;21.70;99.90;;;;;;5091108;28;19932;-67
2022/07/20 06:19:39;;;;;;;;;;;21.50;99.90;;;;;;5095818;28;19927;-67
2022/07/20 06:22:05;;;;;;;;;;;21.80;99.90;;;;;;5087689;28;19976;-66
2022/07/20 06:24:30;;;;;;;;;;;22.00;99.90;;;;;;5091732;28;19912;-68
2022/07/20 06:26:56;;;;;;;;;;;21.90;99.90;;;;;;5095521;28;20268;-66
2022/07/20 06:29:22;;;;;;;;;;;21.90;99.90;;;;;;5094214;28;19913;-67
2022/07/20 06:31:47;;;;;;;;;;;21.80;99.90;;;;;;5092407;28;19912;-66
2022/07/20 06:34:13;;;;;;;;;;;21.90;99.90;;;;;;5095002;28;19965;-67
2022/07/20 06:36:38;;;;;;;;;;;21.90;99.90;;;;;;5075837;28;19920;-68
2022/07/20 06:39:04;;;;;;;;;;;21.70;99.90;;;;;;5076778;28;19912;-68
2022/07/20 06:41:30;;;;;;;;;;;21.60;99.90;;;;;;5093701;28;19923;-67
2022/07/20 06:43:55;;;;;;;;;;;21.50;99.90;;;;;;5099101;28;19912;-67
2022/07/20 06:46:21;;;;;;;;;;;21.50;99.90;;;;;;5091244;28;19991;-67
2022/07/20 06:48:46;;;;;;;;;;;21.60;99.90;;;;;;5096313;28;19924;-68
2022/07/20 06:51:12;;;;;;;;;;;21.70;99.90;;;;;;5092749;28;19920;-68
2022/07/20 06:53:37;;;;;;;;;;;21.80;99.90;;;;;;5095345;28;19912;-67
2022/07/20 06:56:03;;;;;;;;;;;21.70;99.90;;;;;;5100382;28;19951;-68
2022/07/20 06:58:29;;;;;;;;;;;21.50;99.90;;;;;;5092753;28;19934;-67
2022/07/20 07:00:54;;;;;;;;;;;21.40;99.90;;;;;;5095759;28;19923;-66
2022/07/20 07:03:23;;;;;;;;;;;21.30;99.90;;;;;;5074289;28;20353;-67
2022/07/20 07:05:49;;;;;;;;;;;21.30;99.90;;;;;;5095321;28;20003;-65
2022/07/20 07:08:14;;;;;;;;;;;21.30;99.90;;;;;;5092103;28;19916;-67
2022/07/20 07:10:40;;;;;;;;;;;21.30;99.90;;;;;;5093564;28;19920;-67
2022/07/20 07:13:05;;;;;;;;;;;21.30;99.90;;;;;;5101624;28;19964;-68
2022/07/20 07:15:31;;;;;;;;;;;21.30;99.90;;;;;;5095687;28;19916;-67
2022/07/20 07:17:59;;;;;;;;;;;21.60;99.90;;;;;;5097524;28;19927;-68
2022/07/20 07:20:25;;;;;;;;;;;21.70;99.90;;;;;;5096146;28;19924;-68
2022/07/20 07:22:51;;;;;;;;;;;21.90;99.90;;;;;;5110803;28;20348;-67
2022/07/20 07:25:16;;;;;;;;;;;21.70;99.90;;;;;;5101502;28;19947;-67
2022/07/20 07:27:42;;;;;;;;;;;21.80;99.90;;;;;;5082852;28;19912;-67
2022/07/20 07:30:07;;;;;;;;;;;22.00;99.90;;;;;;5096846;28;19912;-67
2022/07/20 07:32:33;;;;;;;;;;;21.90;99.90;;;;;;5098038;28;19947;-67
2022/07/20 07:34:59;;;;;;;;;;;21.80;99.90;;;;;;5077095;28;19952;-68
2022/07/20 07:37:24;;;;;;;;;;;21.90;99.90;;;;;;5089937;28;20366;-68
2022/07/20 07:39:50;;;;;;;;;;;22.10;99.90;;;;;;5088793;28;19958;-65
2022/07/20 07:42:15;;;;;;;;;;;22.10;99.90;;;;;;5097298;28;19923;-66
2022/07/20 07:44:41;;;;;;;;;;;22.30;99.90;;;;;;5091814;28;20277;-65
2022/07/20 07:47:06;;;;;;;;;;;22.60;99.90;;;;;;5091654;28;19935;-65
2022/07/20 07:49:32;;;;;;;;;;;22.60;99.90;;;;;;5092904;28;19912;-66
2022/07/20 07:51:57;;;;;;;;;;;22.80;99.90;;;;;;5098713;28;19919;-66
2022/07/20 07:54:23;;;;;;;;;;;22.70;99.90;;;;;;5078509;28;19904;-66
2022/07/20 07:56:49;;;;;;;;;;;22.70;99.90;;;;;;5073150;28;19912;-67
2022/07/20 07:59:14;;;;;;;;;;;22.40;99.90;;;;;;5091398;28;19930;-66
2022/07/20 08:01:40;;;;;;;;;;;22.10;99.90;;;;;;5094230;28;19920;-67
2022/07/20 08:04:05;;;;;;;;;;;22.00;99.90;;;;;;5088199;28;19920;-66
2022/07/20 08:06:31;;;;;;;;;;;21.90;99.90;;;;;;5072004;28;20365;-66
2022/07/20 08:08:57;;;;;;;;;;;21.90;99.90;;;;;;5095959;28;19953;-66
2022/07/20 08:11:23;;;;;;;;;;;22.30;99.90;;;;;;5091181;28;19914;-66
2022/07/20 08:13:49;;;;;;;;;;;22.40;99.90;;;;;;5073567;28;19944;-67
2022/07/20 08:16:14;;;;;;;;;;;22.40;99.90;;;;;;5096501;28;19916;-66
2022/07/20 08:18:40;;;;;;;;;;;22.50;99.90;;;;;;5095189;28;20289;-65
2022/07/20 08:21:06;;;;;;;;;;;22.50;99.90;;;;;;5102060;28;20401;-65
2022/07/20 08:23:31;;;;;;;;;;;22.40;99.90;;;;;;5073976;28;19920;-65
2022/07/20 08:25:57;;;;;;;;;;;22.50;99.90;;;;;;5097201;28;19912;-65
2022/07/20 08:28:22;;;;;;;;;;;22.70;99.90;;;;;;5092032;28;19912;-65
2022/07/20 08:30:49;;;;;;;;;;;22.90;99.90;;;;;;5089540;28;20363;-65
2022/07/20 08:33:14;;;;;;;;;;;23.00;99.90;;;;;;5091071;28;19913;-65
2022/07/20 08:35:40;;;;;;;;;;;23.00;99.90;;;;;;5097222;28;20283;-64
2022/07/20 08:38:06;;;;;;;;;;;23.10;99.90;;;;;;5090247;28;19912;-66
2022/07/20 08:40:32;;;;;;;;;;;23.10;99.90;;;;;;5104744;28;20076;-65
2022/07/20 08:42:58;;;;;;;;;;;23.20;99.90;;;;;;5105870;28;19974;-65
2022/07/20 08:45:24;;;;;;;;;;;23.00;99.90;;;;;;5071800;28;19912;-65
2022/07/20 08:47:50;;;;;;;;;;;23.00;99.90;;;;;;5093864;28;20412;-65
2022/07/20 08:50:26;;;;;;;;;;;23.00;99.90;;;;;;5098916;28;19912;-66
2022/07/20 08:52:52;;;;;;;;;;;22.90;99.90;;;;;;5091682;28;20362;-66
2022/07/20 08:55:18;;;;;;;;;;;23.10;99.90;;;;;;5097472;28;19956;-66
2022/07/20 08:57:44;;;;;;;;;;;23.00;99.90;;;;;;5071984;28;20374;-66
2022/07/20 09:00:09;;;;;;;;;;;23.40;99.90;;;;;;5090117;28;20013;-66
2022/07/20 09:02:48;;;;;;;;;;;23.60;99.90;;;;;;5095599;28;19928;-66
2022/07/20 09:05:14;;;;;;;;;;;23.70;99.90;;;;;;5099211;28;19963;-66
2022/07/20 09:07:41;;;;;;;;;;;23.90;99.90;;;;;;5080316;28;20037;-65
2022/07/20 09:10:08;;;;;;;;;;;24.00;99.90;;;;;;5096683;28;19930;-65
2022/07/20 09:12:50;;;;;;;;;;;24.00;99.90;;;;;;5089375;28;20394;-66
2022/07/20 09:15:35;;;;;;;;;;;24.10;99.90;;;;;;5077202;28;19912;-65
2022/07/20 09:18:11;;;;;;;;;;;24.20;99.90;;;;;;5092241;28;19930;-65
2022/07/20 09:20:40;;;;;;;;;;;24.40;99.90;;;;;;5096932;28;19916;-65
2022/07/20 09:23:08;;;;;;;;;;;24.50;99.90;;;;;;5105466;28;19916;-65
2022/07/20 09:25:34;;;;;;;;;;;24.50;99.90;;;;;;5088312;28;19920;-65
2022/07/20 09:28:00;;;;;;;;;;;24.10;99.90;;;;;;5097897;28;19934;-65
2022/07/20 09:30:26;;;;;;;;;;;24.10;99.90;;;;;;5093199;28;19912;-65
2022/07/20 09:32:59;;;;;;;;;;;24.00;99.90;;;;;;5093493;28;19912;-66
2022/07/20 09:35:34;;;;;;;;;;;23.80;99.90;;;;;;5093130;28;19923;-66
2022/07/20 09:38:01;;;;;;;;;;;24.00;99.90;;;;;;5093035;28;19965;-66
2022/07/20 09:40:27;;;;;;;;;;;24.10;99.90;;;;;;5098836;28;19945;-66
2022/07/20 09:42:53;;;;;;;;;;;24.20;99.90;;;;;;5104116;28;20091;-67
2022/07/20 09:45:18;;;;;;;;;;;24.70;99.90;;;;;;5104039;28;19920;-65
2022/07/20 09:48:04;;;;;;;;;;;25.10;99.90;;;;;;5094719;28;19962;-65
2022/07/20 09:50:30;;;;;;;;;;;25.10;99.90;;;;;;5089693;28;20262;-66
2022/07/20 09:52:57;;;;;;;;;;;25.20;99.90;;;;;;5102546;28;20142;-65
2022/07/20 09:55:23;;;;;;;;;;;25.40;99.90;;;;;;5098502;28;20377;-66
2022/07/20 09:57:52;;;;;;;;;;;25.40;99.90;;;;;;5084713;28;19919;-66
2022/07/20 10:00:18;;;;;;;;;;;25.60;99.40;;;;;;5106830;28;20020;-65
2022/07/20 10:02:47;;;;;;;;;;;25.60;99.90;;;;;;5105366;28;19956;-65
2022/07/20 10:05:14;;;;;;;;;;;25.90;98.30;;;;;;5096364;28;19935;-66
2022/07/20 10:07:41;;;;;;;;;;;25.70;99.10;;;;;;5098856;28;19980;-65
2022/07/20 10:10:07;;;;;;;;;;;25.50;98.40;;;;;;5105057;28;19963;-65
2022/07/20 10:12:33;;;;;;;;;;;25.10;99.60;;;;;;5097108;28;19916;-65
2022/07/20 10:14:59;;;;;;;;;;;24.90;99.90;;;;;;5099194;28;19919;-66
2022/07/20 10:17:25;;;;;;;;;;;24.70;99.90;;;;;;5094290;28;20378;-65
2022/07/20 10:19:51;;;;;;;;;;;24.50;99.90;;;;;;5099370;28;19931;-66
2022/07/20 10:22:17;;;;;;;;;;;24.30;99.90;;;;;;5096919;28;20267;-66
2022/07/20 10:24:47;;;;;;;;;;;24.30;99.90;;;;;;5076575;28;19958;-66
2022/07/20 10:27:13;;;;;;;;;;;24.40;99.90;;;;;;5101610;28;19947;-67
2022/07/20 10:29:42;;;;;;;;;;;24.40;99.90;;;;;;5105284;28;19998;-66
2022/07/20 10:32:16;;;;;;;;;;;24.40;99.90;;;;;;5109327;28;20375;-66
2022/07/20 10:34:55;;;;;;;;;;;24.50;99.90;;;;;;5093563;28;19951;-66
2022/07/20 10:37:40;;;;;;;;;;;24.70;99.90;;;;;;5092398;28;19940;-66
2022/07/20 10:40:08;;;;;;;;;;;24.70;99.90;;;;;;5080489;28;19927;-67
2022/07/20 10:42:43;;;;;;;;;;;24.50;99.90;;;;;;5091479;28;19916;-67
2022/07/20 10:45:25;;;;;;;;;;;24.70;99.90;;;;;;5093007;28;19935;-68
2022/07/20 10:47:52;;;;;;;;;;;24.70;99.90;;;;;;5092732;28;19916;-67
2022/07/20 10:50:35;;;;;;;;;;;24.70;99.90;;;;;;5088125;28;20004;-65
2022/07/20 10:53:13;;;;;;;;;;;24.60;99.90;;;;;;5075086;28;19916;-64
2022/07/20 10:55:38;;;;;;;;;;;24.40;99.90;;;;;;5074180;28;20266;-64
2022/07/20 10:58:06;;;;;;;;;;;24.50;99.90;;;;;;5075351;28;19916;-66
2022/07/20 11:00:34;;;;;;;;;;;24.70;99.90;;;;;;5082979;28;20619;-65
2022/07/20 11:03:00;;;;;;;;;;;24.70;99.90;;;;;;5075544;28;19924;-66
2022/07/20 11:05:26;;;;;;;;;;;24.40;99.90;;;;;;5075371;28;19955;-65
2022/07/20 11:07:52;;;;;;;;;;;24.20;99.90;;;;;;5094163;28;20357;-66
2022/07/20 11:10:19;;;;;;;;;;;24.20;99.90;;;;;;5085849;28;20378;-66
2022/07/20 11:12:52;;;;;;;;;;;24.40;99.90;;;;;;5078187;28;19916;-65
2022/07/20 11:15:18;;;;;;;;;;;24.50;99.90;;;;;;5079221;28;19912;-66
2022/07/20 11:17:43;;;;;;;;;;;24.40;99.90;;;;;;5075367;28;19928;-66
2022/07/20 11:20:09;;;;;;;;;;;24.20;99.90;;;;;;5082572;28;20382;-66
2022/07/20 11:22:35;;;;;;;;;;;24.10;99.90;;;;;;5100438;28;19916;-65
2022/07/20 11:25:00;;;;;;;;;;;24.10;99.90;;;;;;5100077;28;20033;-66
2022/07/20 11:27:26;;;;;;;;;;;24.40;99.90;;;;;;5094891;28;19995;-66
2022/07/20 11:29:52;;;;;;;;;;;24.60;99.90;;;;;;5095494;28;20562;-65
2022/07/20 11:32:18;;;;;;;;;;;24.80;99.10;;;;;;5089152;28;19918;-66
2022/07/20 11:34:45;;;;;;;;;;;25.00;97.80;;;;;;5099356;28;20003;-66
2022/07/20 11:37:11;;;;;;;;;;;25.20;98.00;;;;;;5104237;28;19912;-67
2022/07/20 11:39:36;;;;;;;;;;;25.30;96.60;;;;;;5093588;28;20358;-67
2022/07/20 11:42:09;;;;;;;;;;;25.40;96.20;;;;;;5092073;28;20286;-66
2022/07/20 11:44:35;;;;;;;;;;;25.80;95.30;;;;;;5095085;28;20427;-65
2022/07/20 11:47:00;;;;;;;;;;;25.90;95.10;;;;;;5091659;28;20434;-66
2022/07/20 11:49:26;;;;;;;;;;;25.80;94.90;;;;;;5063239;28;19916;-66
2022/07/20 11:51:59;;;;;;;;;;;25.90;94.60;;;;;;5090174;28;19965;-66
2022/07/20 11:54:25;;;;;;;;;;;26.00;94.40;;;;;;5080604;28;19919;-66
2022/07/20 11:56:52;;;;;;;;;;;25.90;94.30;;;;;;5092949;28;19924;-66
2022/07/20 11:59:18;;;;;;;;;;;25.60;95.20;;;;;;5089265;28;19916;-66
2022/07/20 12:01:44;;;;;;;;;;;25.80;94.70;;;;;;5080668;28;20078;-65
2022/07/20 12:04:10;;;;;;;;;;;25.80;93.80;;;;;;5102929;28;20403;-66
2022/07/20 12:06:37;;;;;;;;;;;25.70;94.90;;;;;;5100366;28;20277;-67
2022/07/20 12:09:12;;;;;;;;;;;25.80;95.00;;;;;;5097753;28;19951;-65
2022/07/20 12:11:57;;;;;;;;;;;25.80;95.00;;;;;;5094167;28;19967;-64
2022/07/20 12:14:25;;;;;;;;;;;25.80;94.90;;;;;;5084016;28;19965;-65
2022/07/20 12:16:51;;;;;;;;;;;25.80;94.90;;;;;;5097222;28;19912;-65
2022/07/20 12:19:17;;;;;;;;;;;25.80;95.20;;;;;;5093206;28;20378;-66
2022/07/20 12:21:43;;;;;;;;;;;25.50;95.70;;;;;;5095643;28;19986;-65
2022/07/20 12:24:09;;;;;;;;;;;25.30;96.70;;;;;;5096203;28;20442;-65
2022/07/20 12:26:35;;;;;;;;;;;25.70;95.80;;;;;;5097850;28;19912;-65
2022/07/20 12:29:18;;;;;;;;;;;26.00;94.20;;;;;;5107304;28;19957;-66
2022/07/20 12:31:44;;;;;;;;;;;25.90;94.70;;;;;;5101379;28;20022;-66
2022/07/20 12:34:13;;;;;;;;;;;26.10;94.20;;;;;;5100539;28;20355;-65
2022/07/20 12:36:39;;;;;;;;;;;25.90;94.60;;;;;;5100905;28;19920;-66
2022/07/20 12:39:06;;;;;;;;;;;26.00;94.20;;;;;;5094782;28;19954;-65
2022/07/20 12:41:32;;;;;;;;;;;26.30;93.30;;;;;;5100150;28;19916;-65
2022/07/20 12:43:57;;;;;;;;;;;26.50;93.10;;;;;;5096330;28;19916;-65
2022/07/20 12:46:24;;;;;;;;;;;26.60;92.20;;;;;;5084728;28;20460;-64
2022/07/20 12:48:52;;;;;;;;;;;26.60;92.30;;;;;;5096636;28;19958;-65
2022/07/20 12:51:18;;;;;;;;;;;26.80;92.00;;;;;;5093429;28;19967;-66
2022/07/20 12:53:45;;;;;;;;;;;26.70;91.40;;;;;;5095921;28;19957;-65
2022/07/20 12:56:11;;;;;;;;;;;26.40;92.00;;;;;;5095795;28;19995;-68
2022/07/20 12:58:37;;;;;;;;;;;26.00;93.20;;;;;;5085209;28;19916;-66
2022/07/20 13:01:05;;;;;;;;;;;26.40;92.90;;;;;;5096941;28;19923;-65
2022/07/20 13:03:30;;;;;;;;;;;26.90;91.30;;;;;;5076592;28;19920;-65
2022/07/20 13:05:56;;;;;;;;;;;27.30;90.40;;;;;;5101766;28;19912;-65
2022/07/20 13:08:22;;;;;;;;;;;27.10;90.60;;;;;;5095723;28;22787;-65
2022/07/20 13:10:48;;;;;;;;;;;26.90;91.10;;;;;;5098687;28;19919;-68
2022/07/20 13:13:13;;;;;;;;;;;26.80;91.30;;;;;;5108591;28;19911;-65
2022/07/20 13:15:39;;;;;;;;;;;26.70;91.60;;;;;;5107386;28;19920;-66
2022/07/20 13:18:06;;;;;;;;;;;26.50;92.20;;;;;;5089020;28;20044;-66
2022/07/20 13:20:31;;;;;;;;;;;26.20;93.20;;;;;;5076169;28;19952;-66
2022/07/20 13:22:57;;;;;;;;;;;26.10;93.80;;;;;;5058910;28;19962;-66
2022/07/20 13:25:23;;;;;;;;;;;25.80;94.80;;;;;;5081650;28;19919;-65
2022/07/20 13:27:49;;;;;;;;;;;25.50;95.10;;;;;;5089103;28;19913;-66
2022/07/20 13:30:15;;;;;;;;;;;25.30;95.60;;;;;;5061793;28;19920;-65
2022/07/20 13:32:40;;;;;;;;;;;25.00;96.80;;;;;;5074550;28;19920;-66
2022/07/20 13:35:06;;;;;;;;;;;24.70;98.10;;;;;;5077911;28;19913;-69
2022/07/20 13:37:32;;;;;;;;;;;24.70;99.30;;;;;;5092855;28;19908;-66
2022/07/20 13:39:57;;;;;;;;;;;24.90;98.80;;;;;;5082222;28;20003;-65
2022/07/20 13:42:23;;;;;;;;;;;24.80;98.90;;;;;;5079543;28;19927;-66
2022/07/20 13:44:49;;;;;;;;;;;24.70;99.60;;;;;;5074241;28;19919;-65
2022/07/20 13:47:14;;;;;;;;;;;24.40;99.90;;;;;;5081902;28;19919;-65
2022/07/20 13:49:40;;;;;;;;;;;24.20;99.90;;;;;;5082677;28;19917;-66
2022/07/20 13:52:06;;;;;;;;;;;23.90;99.90;;;;;;5077326;28;19913;-66
2022/07/20 13:54:31;;;;;;;;;;;23.40;99.90;;;;;;5076368;28;20395;-66
2022/07/20 13:56:57;;;;;;;;;;;23.30;99.90;;;;;;5075105;28;20001;-66
2022/07/20 13:59:22;;;;;;;;;;;23.10;99.90;;;;;;5079323;28;19919;-65
2022/07/20 14:01:48;;;;;;;;;;;23.10;99.90;;;;;;5080495;28;19916;-66
2022/07/20 14:04:15;;;;;;;;;;;23.20;99.90;;;;;;5059788;28;19923;-65
2022/07/20 14:06:41;;;;;;;;;;;23.60;99.90;;;;;;5081751;28;19916;-66
2022/07/20 14:09:08;;;;;;;;;;;23.90;99.90;;;;;;5077084;28;19917;-66
2022/07/20 14:11:33;;;;;;;;;;;24.00;99.90;;;;;;5074111;28;19919;-66
2022/07/20 14:14:00;;;;;;;;;;;24.10;99.90;;;;;;5088277;28;20313;-66